Time;durP1;ratioP1;P1;durP2;ratioP2;P2;SDS_P1;SDS_P2;PMS_P1;PMS_P2;Temp;Humidity;BMP_temperature;BMP_pressure;BME280_temperature;BME280_humidity;BME280_pressure;Samples;Min_cycle;Max_cycle;Signal;HPM_P1;HPM_P2
2022/11/16 00:02:10;;;;;;;;;;;10.60;99.90;;;;;;4935577;29;20502;-68
2022/11/16 00:04:37;;;;;;;12.20;8.82;;;10.60;99.90;;;;;;4955133;29;19929;-67
2022/11/16 00:07:05;;;;;;;14.38;9.68;;;10.60;99.90;;;;;;4934997;29;20054;-68
2022/11/16 00:09:31;;;;;;;17.33;9.77;;;10.60;99.90;;;;;;4952146;29;20065;-67
2022/11/16 00:12:02;;;;;;;13.43;10.32;;;10.60;99.90;;;;;;4937806;29;20043;-68
2022/11/16 00:14:34;;;;;;;14.65;10.32;;;10.60;99.90;;;;;;4933726;29;20039;-67
2022/11/16 00:17:01;;;;;;;14.57;10.10;;;10.60;99.90;;;;;;4950019;29;20045;-68
2022/11/16 00:19:30;;;;;;;15.80;9.82;;;10.70;99.90;;;;;;4937737;29;20062;-68
2022/11/16 00:21:55;;;;;;;13.32;10.07;;;10.70;99.90;;;;;;4954258;29;20577;-69
2022/11/16 00:24:22;;;;;;;13.50;9.57;;;10.70;99.90;;;;;;4954549;29;20047;-68
2022/11/16 00:26:48;;;;;;;16.92;10.57;;;10.60;99.90;;;;;;4937670;29;20053;-68
2022/11/16 00:29:17;;;;;;;16.77;11.13;;;10.60;99.90;;;;;;4937052;29;20049;-68
2022/11/16 00:31:43;;;;;;;15.82;11.57;;;10.60;99.90;;;;;;4937466;29;20075;-68
2022/11/16 00:34:09;;;;;;;16.02;10.80;;;10.60;99.90;;;;;;4954766;29;20074;-68
2022/11/16 00:36:35;;;;;;;13.10;9.85;;;10.60;99.90;;;;;;4954888;29;20086;-69
2022/11/16 00:39:00;;;;;;;15.68;11.45;;;10.60;99.90;;;;;;4967809;28;20043;-68
2022/11/16 00:41:26;;;;;;;18.48;11.13;;;10.60;99.90;;;;;;4937851;29;20481;-69
2022/11/16 00:43:52;;;;;;;14.70;10.93;;;10.60;99.90;;;;;;4954951;29;20043;-69
2022/11/16 00:46:17;;;;;;;16.17;11.43;;;10.60;99.90;;;;;;4954893;29;20081;-69
2022/11/16 00:48:43;;;;;;;18.77;12.43;;;10.60;99.90;;;;;;4954759;29;20145;-69
2022/11/16 00:51:09;;;;;;;17.25;11.63;;;10.60;99.90;;;;;;4954789;29;20094;-70
2022/11/16 00:53:35;;;;;;;16.42;11.73;;;10.60;99.90;;;;;;4937465;29;20174;-69
2022/11/16 00:56:01;;;;;;;17.33;12.38;;;10.60;99.90;;;;;;4937459;29;20126;-70
2022/11/16 00:58:27;;;;;;;18.13;12.85;;;10.60;99.90;;;;;;4938017;29;20047;-70
2022/11/16 01:00:52;;;;;;;18.98;13.00;;;10.60;99.90;;;;;;4954647;29;20472;-69
2022/11/16 01:03:18;;;;;;;18.52;13.27;;;10.60;99.90;;;;;;4937388;29;20039;-70
2022/11/16 01:05:44;;;;;;;18.80;12.65;;;10.70;99.90;;;;;;4937674;29;20101;-69
2022/11/16 01:08:10;;;;;;;20.52;12.93;;;10.60;99.90;;;;;;4937182;29;20059;-69
2022/11/16 01:10:38;;;;;;;19.20;13.00;;;10.70;99.90;;;;;;4919469;29;20124;-69
2022/11/16 01:13:04;;;;;;;20.42;13.00;;;10.60;99.90;;;;;;4937488;29;20390;-69
2022/11/16 01:15:29;;;;;;;18.83;13.93;;;10.70;99.90;;;;;;4937204;29;20047;-69
2022/11/16 01:17:56;;;;;;;17.73;12.88;;;10.70;99.90;;;;;;4954544;29;20044;-70
2022/11/16 01:20:25;;;;;;;21.20;13.52;;;10.70;99.90;;;;;;4954371;29;20041;-69
2022/11/16 01:22:51;;;;;;;18.52;12.77;;;10.70;99.90;;;;;;4954550;29;20043;-69
2022/11/16 01:25:18;;;;;;;21.95;14.27;;;10.70;99.90;;;;;;4954418;29;20516;-70
2022/11/16 01:27:43;;;;;;;20.10;13.88;;;10.70;99.90;;;;;;4954523;29;20047;-69
2022/11/16 01:30:11;;;;;;;19.67;14.38;;;10.70;99.90;;;;;;4954419;29;20401;-69
2022/11/16 01:32:37;;;;;;;22.90;14.50;;;10.70;99.90;;;;;;4937317;29;20043;-69
2022/11/16 01:35:04;;;;;;;18.92;13.35;;;10.70;99.90;;;;;;4954136;29;20036;-69
2022/11/16 01:37:30;;;;;;;20.35;15.00;;;10.70;99.90;;;;;;4937021;29;20478;-69
2022/11/16 01:39:56;;;;;;;21.38;14.50;;;10.70;99.90;;;;;;4954386;28;20032;-69
2022/11/16 01:42:24;;;;;;;23.23;15.35;;;10.70;99.90;;;;;;4958158;29;20473;-69
2022/11/16 01:44:58;;;;;;;23.50;15.45;;;10.80;99.90;;;;;;4925226;29;20397;-69
2022/11/16 01:47:24;;;;;;;24.17;15.98;;;10.80;99.90;;;;;;4940713;29;20493;-69
2022/11/16 01:50:13;;;;;;;24.67;15.73;;;10.80;99.90;;;;;;4957935;29;20035;-69
2022/11/16 01:52:43;;;;;;;26.85;15.82;;;10.80;99.90;;;;;;4958003;29;20101;-69
2022/11/16 01:55:10;;;;;;;22.48;15.77;;;10.80;99.90;;;;;;4940684;29;20043;-69
2022/11/16 01:57:41;;;;;;;21.35;15.02;;;10.80;99.90;;;;;;4940685;29;20043;-69
2022/11/16 02:00:08;;;;;;;;;;;10.80;99.90;;;;;;4940808;29;20054;-70
2022/11/16 02:02:34;;;;;;;25.83;16.85;;;10.80;99.90;;;;;;4957909;29;19925;-69
2022/11/16 02:05:01;;;;;;;22.63;16.60;;;10.80;99.90;;;;;;4957865;29;20378;-69
2022/11/16 02:10:58;;;;;;;23.27;15.95;;;10.80;99.90;;;;;;4938208;29;20051;-69
2022/11/16 02:13:36;;;;;;;25.20;16.27;;;10.80;99.90;;;;;;4940273;29;20075;-69
2022/11/16 02:16:11;;;;;;;23.98;17.38;;;10.80;99.90;;;;;;4940501;29;20389;-69
2022/11/16 02:18:39;;;;;;;24.95;17.20;;;10.80;99.90;;;;;;4940409;29;20043;-69
2022/11/16 02:21:20;;;;;;;25.60;17.85;;;10.80;99.90;;;;;;4957416;29;20120;-69
2022/11/16 02:24:17;;;;;;;25.50;17.33;;;10.80;99.90;;;;;;4957492;29;20454;-69
2022/11/16 02:27:07;;;;;;;25.02;16.50;;;10.90;99.90;;;;;;4924497;29;20047;-70
2022/11/16 02:29:36;;;;;;;;;;;10.90;99.90;;;;;;4957981;29;20042;-69
2022/11/16 02:32:11;;;;;;;25.08;16.95;;;10.90;99.90;;;;;;4939997;29;19918;-70
2022/11/16 02:34:46;;;;;;;26.13;17.92;;;10.90;99.90;;;;;;4945561;28;20082;-69
2022/11/16 02:37:16;;;;;;;27.38;18.40;;;10.90;99.90;;;;;;4976319;28;20042;-70
2022/11/16 02:39:46;;;;;;;29.25;18.85;;;10.90;99.90;;;;;;4974207;28;20046;-70
2022/11/16 02:42:19;;;;;;;31.08;19.02;;;10.90;99.90;;;;;;4976217;28;20052;-70
2022/11/16 02:44:48;;;;;;;29.40;18.85;;;10.90;99.90;;;;;;4976433;28;20043;-68
2022/11/16 02:47:20;;;;;;;23.95;15.50;;;10.90;99.90;;;;;;4959248;28;20055;-69
2022/11/16 02:49:55;;;;;;;28.13;18.75;;;11.00;99.90;;;;;;4976141;28;20038;-70
2022/11/16 02:52:22;;;;;;;28.75;18.42;;;11.00;99.90;;;;;;4958239;28;20034;-70
2022/11/16 02:54:48;;;;;;;29.05;19.08;;;11.00;99.90;;;;;;4942577;28;20481;-70
2022/11/16 02:57:25;;;;;;;34.40;20.35;;;10.90;99.90;;;;;;4958812;28;20062;-70
2022/11/16 02:59:54;;;;;;;27.60;18.80;;;11.00;99.90;;;;;;4975979;28;20038;-70
2022/11/16 03:02:47;;;;;;;29.75;19.52;;;11.00;99.90;;;;;;4958504;28;20047;-70
2022/11/16 03:05:33;;;;;;;31.52;19.55;;;11.00;99.90;;;;;;4976099;28;20038;-70
2022/11/16 03:08:04;;;;;;;30.45;19.25;;;11.00;99.90;;;;;;4958413;28;20059;-71
2022/11/16 03:13:17;;;;;;;28.13;19.10;;;11.00;99.90;;;;;;4958208;28;20047;-70
2022/11/16 03:15:43;;;;;;;29.85;19.50;;;10.90;99.90;;;;;;4942422;28;20082;-70
2022/11/16 03:18:13;;;;;;;33.15;20.63;;;11.00;99.90;;;;;;4958311;28;20049;-70
2022/11/16 03:20:41;;;;;;;30.60;19.65;;;11.00;99.90;;;;;;4975615;28;20094;-70
2022/11/16 03:23:09;;;;;;;29.73;19.27;;;11.00;99.90;;;;;;4975524;28;20055;-71
2022/11/16 03:25:50;;;;;;;27.17;18.63;;;11.00;99.90;;;;;;4975345;28;20100;-70
2022/11/16 03:28:22;;;;;;;;;;;11.00;99.90;;;;;;4958536;28;20050;-70
2022/11/16 03:30:59;;;;;;;27.08;17.83;;;11.00;99.90;;;;;;4975388;28;20399;-70
2022/11/16 03:33:31;;;;;;;28.73;17.92;;;11.00;99.90;;;;;;4957897;28;20053;-70
2022/11/16 03:36:16;;;;;;;27.80;18.92;;;10.90;99.90;;;;;;4957951;28;20035;-70
2022/11/16 03:38:45;;;;;;;27.48;18.38;;;11.00;99.90;;;;;;4973972;28;20046;-70
2022/11/16 03:41:12;;;;;;;26.25;17.40;;;11.00;99.90;;;;;;4957649;28;20051;-70
2022/11/16 03:43:41;;;;;;;27.00;17.02;;;11.00;99.90;;;;;;4957823;28;20039;-70
2022/11/16 03:46:07;;;;;;;27.08;18.08;;;11.00;99.90;;;;;;4975122;28;20465;-70
2022/11/16 03:48:39;;;;;;;27.63;16.95;;;11.00;99.90;;;;;;4957878;28;20034;-70
2022/11/16 03:51:08;;;;;;;24.48;15.68;;;11.00;99.90;;;;;;4957587;28;20051;-70
2022/11/16 03:53:34;;;;;;;25.13;17.58;;;11.00;99.90;;;;;;4975123;28;20031;-70
2022/11/16 03:56:00;;;;;;;26.85;17.15;;;11.00;99.90;;;;;;4957656;28;20043;-70
2022/11/16 03:58:26;;;;;;;26.23;18.38;;;11.00;99.90;;;;;;4957791;28;20089;-70
2022/11/16 04:00:52;;;;;;;26.08;17.63;;;11.00;99.90;;;;;;4957331;28;20042;-70
2022/11/16 04:03:18;;;;;;;34.45;19.17;;;11.00;99.90;;;;;;4973802;28;20438;-70
2022/11/16 04:25:22;;;;;;;29.58;19.95;;;11.00;99.90;;;;;;4974325;28;20504;-71
2022/11/16 04:38:46;;;;;;;31.58;19.55;;;11.00;99.90;;;;;;4955211;28;20082;-71
2022/11/16 04:42:13;;;;;;;28.75;18.95;;;11.10;99.90;;;;;;4956917;28;20121;-70
2022/11/16 04:43:57;;;;;;;29.13;18.63;;;11.10;99.90;;;;;;4956690;28;20086;-71
2022/11/16 04:49:07;;;;;;;27.77;18.65;;;11.10;99.90;;;;;;4973963;28;20043;-70
2022/11/16 04:51:33;;;;;;;29.30;19.00;;;11.10;99.90;;;;;;4956931;28;20042;-70
2022/11/16 04:53:59;;;;;;;30.05;19.35;;;11.10;99.90;;;;;;4956834;28;20090;-71
2022/11/16 04:56:24;;;;;;;29.58;18.63;;;11.10;99.90;;;;;;4956739;28;20051;-70
2022/11/16 04:58:50;;;;;;;35.13;19.80;;;11.10;99.90;;;;;;4974044;28;20066;-72
2022/11/16 05:01:16;;;;;;;30.38;18.95;;;11.10;99.90;;;;;;4974018;28;20097;-71
2022/11/16 05:03:41;;;;;;;35.15;20.90;;;11.10;99.90;;;;;;4973812;28;20058;-71
2022/11/16 05:06:07;;;;;;;31.98;19.73;;;11.10;99.90;;;;;;4956590;28;20047;-71
2022/11/16 05:08:33;;;;;;;27.38;18.23;;;11.20;99.90;;;;;;4973939;28;20066;-70
2022/11/16 05:10:58;;;;;;;32.50;20.60;;;11.10;99.90;;;;;;4954495;28;20094;-70
2022/11/16 05:13:24;;;;;;;30.95;19.33;;;11.10;99.90;;;;;;4973855;28;20045;-71
2022/11/16 05:15:50;;;;;;;34.03;20.58;;;11.10;99.90;;;;;;4960010;28;20051;-70
2022/11/16 05:18:15;;;;;;;29.77;19.08;;;11.20;99.90;;;;;;4977755;28;20469;-71
2022/11/16 05:20:59;;;;;;;29.83;19.23;;;11.10;99.90;;;;;;4978011;28;20042;-71
2022/11/16 05:26:09;;;;;;;24.45;16.98;;;11.10;99.90;;;;;;4977702;28;20042;-70
2022/11/16 05:28:36;;;;;;;23.70;15.82;;;11.20;99.90;;;;;;4960156;28;20536;-70
2022/11/16 05:31:02;;;;;;;29.25;18.77;;;11.10;99.90;;;;;;4977850;28;20380;-70
2022/11/16 05:33:28;;;;;;;23.45;15.90;;;11.10;99.90;;;;;;4960176;28;20046;-70
2022/11/16 05:35:53;;;;;;;22.83;16.52;;;11.20;99.90;;;;;;4977662;28;20070;-70
2022/11/16 05:38:19;;;;;;;26.00;17.23;;;11.20;99.90;;;;;;4960088;28;20656;-70
2022/11/16 05:40:45;;;;;;;29.92;19.40;;;11.20;99.90;;;;;;4958031;28;20050;-70
2022/11/16 05:43:10;;;;;;;28.38;18.63;;;11.10;99.90;;;;;;4977413;28;20035;-70
2022/11/16 05:45:36;;;;;;;28.20;18.42;;;11.20;99.90;;;;;;4960041;28;20511;-70
2022/11/16 05:48:02;;;;;;;38.33;20.08;;;11.10;99.90;;;;;;4977562;28;20043;-70
2022/11/16 05:50:28;;;;;;;33.78;20.40;;;11.10;99.90;;;;;;4959833;28;20075;-70
2022/11/16 05:52:53;;;;;;;43.88;23.70;;;11.10;99.90;;;;;;4959783;28;20043;-71
2022/11/16 05:55:19;;;;;;;58.45;27.52;;;11.20;99.90;;;;;;4943853;28;20035;-71
2022/11/16 05:57:45;;;;;;;58.42;26.95;;;11.20;99.90;;;;;;4977066;28;20035;-71
2022/11/16 06:00:11;;;;;;;50.78;25.65;;;11.20;99.90;;;;;;4977305;28;20775;-72
2022/11/16 06:02:37;;;;;;;38.03;21.83;;;11.20;99.90;;;;;;4959634;28;20125;-71
2022/11/16 06:05:03;;;;;;;49.88;25.73;;;11.20;99.90;;;;;;4959657;28;20134;-71
2022/11/16 06:07:29;;;;;;;56.15;27.88;;;11.20;99.90;;;;;;4976932;28;20089;-70
2022/11/16 06:09:54;;;;;;;75.80;28.70;;;11.20;99.90;;;;;;4974742;28;20053;-71
2022/11/16 06:12:20;;;;;;;64.85;26.15;;;11.20;99.90;;;;;;4976862;28;20054;-71
2022/11/16 06:14:46;;;;;;;58.63;26.00;;;11.10;99.90;;;;;;4959326;28;20047;-71
2022/11/16 06:17:13;;;;;;;59.08;21.75;;;11.10;99.90;;;;;;4959720;28;20043;-71
2022/11/16 06:19:39;;;;;;;28.33;16.85;;;11.10;99.90;;;;;;4976901;28;20042;-70
2022/11/16 06:22:05;;;;;;;31.30;17.58;;;11.10;99.90;;;;;;4959387;28;20055;-70
2022/11/16 06:24:31;;;;;;;29.25;16.52;;;11.10;99.90;;;;;;4976762;28;20065;-70
2022/11/16 06:26:57;;;;;;;27.40;16.42;;;11.10;99.90;;;;;;4975407;28;20069;-70
2022/11/16 06:29:23;;;;;;;27.40;15.35;;;11.00;99.90;;;;;;4976509;28;20045;-70
2022/11/16 06:31:49;;;;;;;26.88;15.35;;;11.00;99.90;;;;;;4959159;28;20050;-70
2022/11/16 06:34:14;;;;;;;26.60;14.32;;;10.90;99.90;;;;;;4959024;28;20051;-70
2022/11/16 06:36:40;;;;;;;27.55;13.57;;;10.90;99.90;;;;;;4976301;28;20097;-70
2022/11/16 06:39:06;;;;;;;20.52;12.60;;;10.80;99.90;;;;;;4956814;28;20130;-70
2022/11/16 06:41:33;;;;;;;18.95;11.00;;;10.80;99.90;;;;;;4976275;28;20065;-71
2022/11/16 06:43:58;;;;;;;18.05;10.02;;;10.80;99.90;;;;;;4976260;28;20062;-70
2022/11/16 06:46:25;;;;;;;15.15;9.25;;;10.70;99.90;;;;;;4958939;28;20047;-70
2022/11/16 06:48:50;;;;;;;16.23;9.02;;;10.70;99.90;;;;;;4959001;28;20077;-70
2022/11/16 06:51:16;;;;;;;22.33;12.18;;;10.60;99.90;;;;;;4958829;28;20046;-70
2022/11/16 06:53:42;;;;;;;24.17;12.32;;;10.60;99.90;;;;;;4975959;28;20045;-69
2022/11/16 06:56:11;;;;;;;24.02;12.40;;;10.60;99.90;;;;;;4976086;28;20047;-69
2022/11/16 06:58:36;;;;;;;18.33;10.88;;;10.60;99.90;;;;;;4959013;28;20377;-69
2022/11/16 07:01:07;;;;;;;22.02;11.90;;;10.60;99.90;;;;;;4958576;28;20038;-70
2022/11/16 07:03:32;;;;;;;;;;;10.50;99.90;;;;;;4959260;28;20498;-70
2022/11/16 07:05:58;;;;;;;23.63;12.20;;;10.50;99.90;;;;;;4975835;28;19928;-69
2022/11/16 07:08:24;;;;;;;20.42;12.57;;;10.50;99.90;;;;;;4939259;29;20138;-69
2022/11/16 07:10:49;;;;;;;20.05;12.32;;;10.50;99.90;;;;;;4953138;29;20043;-69
2022/11/16 07:13:15;;;;;;;20.08;11.80;;;10.50;99.90;;;;;;4955526;29;20462;-70
2022/11/16 07:15:41;;;;;;;22.05;12.25;;;10.50;99.90;;;;;;4956249;29;20566;-69
2022/11/16 07:18:06;;;;;;;26.95;13.18;;;10.40;99.90;;;;;;4955287;29;20043;-69
2022/11/16 07:20:33;;;;;;;26.30;12.75;;;10.40;99.90;;;;;;4956342;29;20032;-69
2022/11/16 07:23:00;;;;;;;22.75;12.68;;;10.40;99.90;;;;;;4939086;29;20062;-69
2022/11/16 07:25:26;;;;;;;23.75;13.05;;;10.30;99.90;;;;;;4939391;29;20047;-68
2022/11/16 07:27:52;;;;;;;24.38;13.38;;;10.30;99.90;;;;;;4955438;29;20047;-67
2022/11/16 07:30:18;;;;;;;26.40;14.13;;;10.30;99.90;;;;;;4956655;29;20514;-67
2022/11/16 07:32:43;;;;;;;29.33;13.73;;;10.30;99.90;;;;;;4956756;28;20055;-68
2022/11/16 07:35:09;;;;;;;19.50;12.63;;;10.30;99.90;;;;;;4937882;29;20048;-67
2022/11/16 07:37:35;;;;;;;25.33;14.13;;;10.30;99.90;;;;;;4916667;29;20047;-67
2022/11/16 07:40:02;;;;;;;24.83;13.27;;;10.30;99.90;;;;;;4915731;29;20048;-67
2022/11/16 07:42:28;;;;;;;21.13;11.38;;;10.30;99.90;;;;;;4900940;29;20048;-67
2022/11/16 07:44:53;;;;;;;18.48;10.90;;;10.30;99.90;;;;;;4916623;29;20079;-67
2022/11/16 07:47:19;;;;;;;18.25;10.98;;;10.30;99.90;;;;;;4916712;29;20108;-67
2022/11/16 07:49:47;;;;;;;17.85;9.45;;;10.30;99.90;;;;;;4917496;29;20040;-67
2022/11/16 07:52:12;;;;;;;18.63;9.40;;;10.20;99.90;;;;;;4916595;29;20088;-67
2022/11/16 07:54:38;;;;;;;19.67;10.38;;;10.20;99.90;;;;;;4916513;29;20079;-67
2022/11/16 07:57:05;;;;;;;18.48;10.27;;;10.20;99.90;;;;;;4916536;29;20618;-67
2022/11/16 07:59:30;;;;;;;16.77;10.82;;;10.20;99.90;;;;;;4916346;29;20505;-67
2022/11/16 08:01:57;;;;;;;23.10;11.93;;;10.20;99.90;;;;;;4917513;29;20048;-67
2022/11/16 08:04:23;;;;;;;29.02;13.30;;;10.20;99.90;;;;;;4917489;29;20048;-67
2022/11/16 08:06:50;;;;;;;27.30;13.98;;;10.20;99.90;;;;;;4916629;29;20043;-68
2022/11/16 08:09:16;;;;;;;24.75;13.25;;;10.20;99.90;;;;;;4944223;29;20490;-68
2022/11/16 08:11:42;;;;;;;27.95;14.68;;;10.30;99.90;;;;;;4955761;29;20094;-68
2022/11/16 08:14:07;;;;;;;32.22;15.98;;;10.30;99.90;;;;;;4938502;29;20098;-67
2022/11/16 08:16:33;;;;;;;31.27;14.75;;;10.30;99.90;;;;;;4937893;29;20039;-68
2022/11/16 08:19:01;;;;;;;27.75;15.73;;;10.30;99.90;;;;;;4938233;29;20039;-68
2022/11/16 08:21:26;;;;;;;34.22;16.58;;;10.40;99.90;;;;;;4955627;29;20105;-68
2022/11/16 08:23:52;;;;;;;31.83;16.02;;;10.40;99.90;;;;;;4955102;28;20043;-68
2022/11/16 08:26:20;;;;;;;33.38;16.92;;;10.50;99.90;;;;;;4952444;28;20042;-68
2022/11/16 08:28:50;;;;;;;29.35;15.82;;;10.50;99.90;;;;;;4956935;28;20105;-68
2022/11/16 08:31:19;;;;;;;29.85;16.30;;;10.50;99.90;;;;;;4928421;29;20051;-69
2022/11/16 08:33:46;;;;;;;31.08;15.93;;;10.60;99.90;;;;;;4937652;29;20039;-68
2022/11/16 08:36:16;;;;;;;31.65;16.63;;;10.70;99.90;;;;;;4937703;29;20039;-68
2022/11/16 08:38:44;;;;;;;24.60;15.32;;;10.70;99.90;;;;;;4938706;28;20416;-68
2022/11/16 08:41:10;;;;;;;28.30;14.80;;;10.70;99.90;;;;;;4970821;28;20046;-69
2022/11/16 08:43:38;;;;;;;28.40;16.02;;;10.80;99.90;;;;;;4954386;28;20046;-68
2022/11/16 08:46:04;;;;;;;31.50;16.38;;;10.80;99.90;;;;;;4967210;28;20045;-69
2022/11/16 08:48:30;;;;;;;27.98;15.50;;;10.90;99.90;;;;;;4955628;28;20066;-69
2022/11/16 08:51:21;;;;;;;22.00;14.00;;;11.00;99.90;;;;;;4954070;28;20039;-71
2022/11/16 08:53:48;;;;;;;23.77;13.98;;;11.20;99.90;;;;;;4972912;28;20053;-70
2022/11/16 08:56:15;;;;;;;23.35;13.38;;;11.20;99.90;;;;;;4956371;28;20539;-69
2022/11/16 08:58:47;;;;;;;21.67;14.20;;;11.20;99.90;;;;;;4973682;28;20105;-69
2022/11/16 09:01:18;;;;;;;21.60;13.45;;;11.20;99.90;;;;;;4932001;28;20070;-69
2022/11/16 09:03:44;;;;;;;20.80;12.85;;;11.20;99.90;;;;;;4940302;28;20101;-70
2022/11/16 09:06:11;;;;;;;19.65;13.25;;;11.20;99.90;;;;;;4956428;28;20117;-70
2022/11/16 09:08:39;;;;;;;19.85;13.38;;;11.20;99.90;;;;;;4973443;28;20433;-69
2022/11/16 09:11:10;;;;;;;20.73;12.65;;;11.30;99.90;;;;;;4955967;28;20130;-70
2022/11/16 09:13:36;;;;;;;19.02;13.65;;;11.40;99.90;;;;;;4955906;28;20090;-70
2022/11/16 09:16:02;;;;;;;18.33;12.63;;;11.40;99.90;;;;;;4955896;28;20042;-69
2022/11/16 09:18:29;;;;;;;21.63;13.52;;;11.50;99.90;;;;;;4955455;28;20429;-69
2022/11/16 09:20:54;;;;;;;22.25;12.57;;;11.60;99.90;;;;;;4977753;28;20066;-69
2022/11/16 09:23:21;;;;;;;18.15;12.73;;;11.60;99.90;;;;;;4973384;28;20043;-69
2022/11/16 09:25:47;;;;;;;17.52;13.25;;;11.70;99.90;;;;;;4955907;28;20052;-70
2022/11/16 09:28:14;;;;;;;17.67;11.82;;;11.70;99.90;;;;;;4955743;28;20046;-72
2022/11/16 09:30:41;;;;;;;15.65;10.52;;;11.90;99.90;;;;;;4955883;28;20042;-72
2022/11/16 09:33:07;;;;;;;17.85;10.95;;;12.00;99.90;;;;;;4956112;28;20050;-70
2022/11/16 09:35:33;;;;;;;14.20;9.77;;;12.50;99.90;;;;;;4973059;28;20064;-70
2022/11/16 09:37:59;;;;;;;12.07;9.25;;;13.10;99.90;;;;;;4973078;28;20074;-70
2022/11/16 09:40:36;;;;;;;15.60;10.85;;;13.50;99.90;;;;;;4955956;28;20078;-70
2022/11/16 09:43:37;;;;;;;10.90;8.07;;;13.40;99.90;;;;;;4955866;28;20385;-71
2022/11/16 09:46:21;;;;;;;;;;;13.70;99.90;;;;;;4972215;28;20513;-70
2022/11/16 09:48:49;;;;;;;14.40;9.93;;;14.30;99.90;;;;;;4955576;28;20265;-70
2022/11/16 09:51:16;;;;;;;12.20;10.07;;;15.10;99.90;;;;;;4970728;28;20074;-70
2022/11/16 09:54:13;;;;;;;13.65;9.65;;;15.40;99.90;;;;;;4969442;28;20380;-71
2022/11/16 09:56:41;;;;;;;15.75;9.77;;;15.30;99.90;;;;;;4965970;28;20042;-71
2022/11/16 09:59:07;;;;;;;12.65;8.88;;;14.60;99.90;;;;;;4972764;28;20519;-71
2022/11/16 10:01:49;;;;;;;12.80;9.93;;;13.90;99.90;;;;;;4958501;28;20038;-70
2022/11/16 10:04:39;;;;;;;14.43;9.23;;;13.60;99.90;;;;;;4959012;28;20571;-71
2022/11/16 10:07:15;;;;;;;10.63;8.63;;;13.30;99.90;;;;;;4976257;28;20513;-71
2022/11/16 10:09:43;;;;;;;10.88;8.32;;;13.90;99.90;;;;;;4939244;29;20059;-71
2022/11/16 10:13:01;;;;;;;13.23;8.32;;;14.60;99.90;;;;;;4955285;29;20078;-70
2022/11/16 10:15:44;;;;;;;13.23;7.65;;;14.90;99.90;;;;;;4897789;29;20053;-71
2022/11/16 10:18:56;;;;;;;12.95;8.48;;;14.70;99.90;;;;;;4955791;29;20074;-70
2022/11/16 10:21:50;;;;;;;9.50;7.43;;;14.50;99.90;;;;;;4937253;29;20051;-71
2022/11/16 10:24:43;;;;;;;17.17;9.10;;;13.90;99.90;;;;;;4952488;29;20389;-71
2022/11/16 10:27:29;;;;;;;13.68;8.13;;;13.30;99.90;;;;;;4945272;29;20043;-71
2022/11/16 10:30:15;;;;;;;9.82;8.23;;;13.40;99.90;;;;;;4950289;29;20043;-70
2022/11/16 10:33:19;;;;;;;12.70;7.72;;;13.70;99.90;;;;;;4955438;29;20493;-70
2022/11/16 10:35:55;;;;;;;10.77;7.22;;;13.90;99.90;;;;;;4931378;29;20094;-70
2022/11/16 10:38:29;;;;;;;12.52;7.93;;;14.70;99.90;;;;;;4929977;29;20051;-71
2022/11/16 10:41:13;;;;;;;12.10;7.15;;;14.80;99.90;;;;;;4951592;29;20447;-71
2022/11/16 10:43:41;;;;;;;10.43;6.95;;;15.20;99.90;;;;;;4933692;29;20031;-70
2022/11/16 10:46:54;;;;;;;12.85;7.18;;;15.00;99.90;;;;;;4951709;29;20044;-70
2022/11/16 10:49:26;;;;;;;14.40;5.28;;;15.20;99.90;;;;;;4934122;29;20125;-71
2022/11/16 10:51:52;;;;;;;8.77;4.97;;;15.60;99.90;;;;;;4953727;28;20047;-71
2022/11/16 10:54:18;;;;;;;9.15;5.40;;;15.60;99.90;;;;;;4956129;28;20054;-71
2022/11/16 10:56:50;;;;;;;9.20;4.85;;;15.50;99.90;;;;;;4955197;29;20039;-71
2022/11/16 10:59:20;;;;;;;10.85;5.60;;;15.20;99.90;;;;;;4955738;28;20062;-72
2022/11/16 11:01:56;;;;;;;8.68;4.88;;;14.60;99.90;;;;;;4945264;29;20171;-71
2022/11/16 11:04:30;;;;;;;9.90;5.03;;;14.10;99.90;;;;;;4938891;29;20074;-72
2022/11/16 11:07:28;;;;;;;8.90;4.68;;;13.60;99.90;;;;;;4954719;29;20051;-71
2022/11/16 11:09:54;;;;;;;8.60;4.45;;;13.00;99.90;;;;;;4930155;29;20066;-71
2022/11/16 11:12:37;;;;;;;5.70;3.92;;;12.70;99.90;;;;;;4934855;29;20079;-71
2022/11/16 11:15:25;;;;;;;10.60;4.05;;;12.50;99.90;;;;;;4919552;29;20127;-71
2022/11/16 11:18:09;;;;;;;7.90;3.60;;;12.40;99.90;;;;;;4935606;29;20075;-72
2022/11/16 11:20:37;;;;;;;10.93;3.75;;;12.40;99.90;;;;;;4933422;29;20062;-70
2022/11/16 11:23:13;;;;;;;8.38;3.42;;;12.30;99.90;;;;;;4936453;29;20502;-72
2022/11/16 11:25:54;;;;;;;9.35;3.78;;;12.40;99.90;;;;;;4936296;29;20078;-72
2022/11/16 11:28:22;;;;;;;8.30;3.72;;;13.00;99.90;;;;;;4936378;29;20099;-72
2022/11/16 11:30:57;;;;;;;8.88;4.57;;;13.30;99.90;;;;;;4919239;29;20685;-72
2022/11/16 11:33:25;;;;;;;8.43;2.85;;;13.40;99.90;;;;;;4934934;29;20055;-72
2022/11/16 11:36:17;;;;;;;7.80;3.33;;;13.20;99.90;;;;;;4936066;29;20150;-72
2022/11/16 11:39:00;;;;;;;12.60;3.15;;;13.00;99.90;;;;;;4935145;29;20062;-72
2022/11/16 11:41:32;;;;;;;10.93;2.83;;;13.20;99.90;;;;;;4934806;29;20048;-73
2022/11/16 11:44:14;;;;;;;6.32;2.60;;;13.40;99.90;;;;;;4934920;29;20042;-72
2022/11/16 11:46:54;;;;;;;6.50;2.55;;;13.40;99.90;;;;;;4935033;29;20442;-72
2022/11/16 11:49:25;;;;;;;9.43;3.00;;;13.10;99.90;;;;;;4935963;29;20466;-72
2022/11/16 11:51:55;;;;;;;12.80;3.20;;;12.70;99.90;;;;;;4933949;29;20430;-72
2022/11/16 11:54:33;;;;;;;7.50;3.00;;;12.40;99.90;;;;;;4934754;29;20048;-73
2022/11/16 11:57:02;;;;;;;8.55;3.03;;;12.30;99.90;;;;;;4936160;29;20149;-70
2022/11/16 11:59:29;;;;;;;7.07;2.42;;;12.30;99.90;;;;;;4934711;29;20039;-72
2022/11/16 12:02:20;;;;;;;6.32;2.97;;;12.20;99.90;;;;;;4918788;29;20120;-72
2022/11/16 12:05:47;;;;;;;8.32;2.60;;;12.30;99.90;;;;;;4935790;29;20048;-72
2022/11/16 12:08:31;;;;;;;7.82;2.55;;;12.50;99.90;;;;;;4872543;28;20132;-71
2022/11/16 12:11:26;;;;;;;10.35;2.50;;;12.70;99.90;;;;;;4954703;29;20051;-73
2022/11/16 12:14:20;;;;;;;7.32;2.42;;;12.80;99.90;;;;;;4940532;29;20062;-72
2022/11/16 12:17:07;;;;;;;6.05;2.40;;;12.90;99.90;;;;;;4954807;29;20497;-72
2022/11/16 12:20:04;;;;;;;8.45;2.53;;;12.90;99.90;;;;;;4953326;29;20043;-71
2022/11/16 12:22:51;;;;;;;10.57;2.63;;;12.80;99.90;;;;;;4954910;28;20031;-72
2022/11/16 12:25:36;;;;;;;8.45;2.85;;;12.60;99.90;;;;;;4953860;28;20047;-72
2022/11/16 12:28:14;;;;;;;7.88;2.88;;;12.50;99.90;;;;;;4953390;29;20126;-73
2022/11/16 12:30:58;;;;;;;6.97;3.28;;;12.50;99.90;;;;;;4954794;28;20390;-71
2022/11/16 12:33:47;;;;;;;9.18;2.85;;;12.40;99.90;;;;;;4953007;29;20058;-72
2022/11/16 12:36:34;;;;;;;7.95;2.78;;;12.40;99.90;;;;;;4924175;29;20107;-72
2022/11/16 12:39:17;;;;;;;12.40;3.55;;;12.30;99.90;;;;;;4939673;29;20082;-72
2022/11/16 12:41:58;;;;;;;8.95;3.22;;;12.30;99.90;;;;;;4937482;29;20129;-72
2022/11/16 12:44:30;;;;;;;11.70;5.28;;;12.20;99.90;;;;;;4953157;29;20438;-73
2022/11/16 12:47:28;;;;;;;12.73;3.38;;;12.20;99.90;;;;;;4953231;29;20049;-72
2022/11/16 12:50:25;;;;;;;8.00;3.30;;;12.20;99.90;;;;;;4951040;29;20050;-72
2022/11/16 12:53:16;;;;;;;9.73;3.42;;;12.20;99.90;;;;;;4954301;28;20581;-72
2022/11/16 12:56:08;;;;;;;10.40;3.13;;;12.30;99.90;;;;;;4953103;29;20043;-72
2022/11/16 12:59:01;;;;;;;9.88;3.38;;;12.30;99.90;;;;;;4953112;29;20094;-72
2022/11/16 13:01:44;;;;;;;8.23;3.22;;;12.30;99.90;;;;;;4928687;29;20074;-71
2022/11/16 13:04:15;;;;;;;9.38;3.00;;;12.30;99.90;;;;;;4954380;28;20122;-71
2022/11/16 13:07:00;;;;;;;6.65;2.40;;;12.20;99.90;;;;;;4953200;29;20207;-72
2022/11/16 13:09:31;;;;;;;11.82;3.30;;;12.20;99.90;;;;;;4936722;29;20067;-72
2022/11/16 13:12:12;;;;;;;8.32;2.50;;;12.10;99.90;;;;;;4953049;29;20058;-70
2022/11/16 13:14:41;;;;;;;9.27;2.63;;;12.10;99.90;;;;;;4952660;29;20043;-72
2022/11/16 13:17:13;;;;;;;9.90;2.00;;;12.00;99.90;;;;;;4953083;29;20075;-71
2022/11/16 13:19:43;;;;;;;9.48;2.20;;;11.90;99.90;;;;;;4952926;29;20047;-73
2022/11/16 13:22:22;;;;;;;7.18;1.95;;;11.80;99.90;;;;;;4935520;29;20102;-73
2022/11/16 13:24:48;;;;;;;7.77;1.70;;;11.80;99.90;;;;;;4952755;29;20053;-71
2022/11/16 13:27:16;;;;;;;10.50;2.60;;;11.70;99.90;;;;;;4952882;29;20279;-71
2022/11/16 13:29:53;;;;;;;12.35;2.25;;;11.70;99.90;;;;;;4940558;29;20126;-72
2022/11/16 13:32:44;;;;;;;11.32;2.33;;;11.70;99.90;;;;;;4944396;29;20102;-72
2022/11/16 13:35:16;;;;;;;9.43;2.10;;;11.70;99.90;;;;;;4936739;28;20052;-72
2022/11/16 13:37:46;;;;;;;6.70;2.28;;;11.70;99.90;;;;;;4932584;29;20070;-72
2022/11/16 13:40:27;;;;;;;9.88;2.33;;;11.70;99.90;;;;;;4955487;29;20040;-73